Decoded Metar for KSMX (SANTA MARIA in CA, USA) (IATA:SMX) | Meteo·Mobile Aviation Weather
aviador You're here:

KSMX Decoded Metar

SANTA MARIA in CA, USA
Report Time2018-12-15 15:51:00
UTC Time2018-12-15 16:08:43
Flight Rules vfr VFR
WindCalm
Visibility9999 m
Phenomena:N/A
Clouds:N/A
CeilingNone
Temp07°C (ISA -8)
Dew Point07°C (100% RH)
AAT6.3°C
QNH1019 hPa
Density Alt-728 ft
Elevation243 ft
Report Wrong Elevation
Raw Report
KSMX 151551Z 00000KT 10SM CLR 07/07 A3010 RMK AO2 SLP196
T00670067=

Extra information for KSMX:More info

Metar Taf Metar & Taf Last 4 Metars F.Rules Stats Wind Profile Meteogram Temp Stats Airport Information Weather charts Add Link Nearby VenuesMetar ALERT Operation Metar Decoded Social comments

AIRNAV info for KSMX